Time;durP1;ratioP1;P1;durP2;ratioP2;P2;SDS_P1;SDS_P2;PMS_P1;PMS_P2;Temp;Humidity;BMP_temperature;BMP_pressure;BME280_temperature;BME280_humidity;BME280_pressure;Samples;Min_cycle;Max_cycle;Signal;HPM_P1;HPM_P2
2022/07/09 00:07:26;;;;;;;4.80;1.45;;;;;;;21.78;47.66;100981.84;18564076;32;20338;-56
2022/07/09 00:17:31;;;;;;;2.90;1.37;;;;;;;21.58;47.42;100979.94;18562825;32;20350;-56
2022/07/09 00:27:35;;;;;;;3.40;1.50;;;;;;;21.57;47.55;100980.84;18562319;32;20092;-56
2022/07/09 00:37:39;;;;;;;2.55;1.30;;;;;;;21.59;47.23;100987.84;18563296;32;20110;-56
2022/07/09 00:47:42;;;;;;;1.92;1.30;;;;;;;21.30;47.49;100975.69;18547193;32;20107;-56
2022/07/09 00:57:47;;;;;;;2.75;1.58;;;;;;;21.44;46.72;100970.72;18562896;32;20088;-56
2022/07/09 01:07:50;;;;;;;2.37;1.30;;;;;;;21.56;45.85;100965.84;18561046;32;20391;-56
2022/07/09 01:17:57;;;;;;;5.30;1.50;;;;;;;21.52;46.20;100969.53;18560690;32;20108;-55
2022/07/09 01:28:02;;;;;;;2.97;1.30;;;;;;;21.52;46.07;100969.53;18560605;32;20084;-56
2022/07/09 01:38:05;;;;;;;3.08;1.60;;;;;;;21.40;45.30;100970.91;18559885;32;20178;-56
2022/07/09 01:48:10;;;;;;;4.15;1.45;;;;;;;21.30;46.10;100951.78;18559015;32;20127;-55
2022/07/09 01:58:13;;;;;;;5.22;1.50;;;;;;;21.47;45.54;100946.69;18558533;32;20100;-56
2022/07/09 02:08:18;;;;;;;4.25;1.40;;;;;;;20.97;47.95;100945.03;18557718;32;20089;-56
2022/07/09 02:18:21;;;;;;;2.78;1.40;;;;;;;21.12;45.95;100942.75;18558799;32;20096;-55
2022/07/09 02:28:26;;;;;;;3.65;1.50;;;;;;;21.00;46.32;100946.72;18565704;32;20157;-56
2022/07/09 02:38:29;;;;;;;11.15;1.80;;;;;;;20.91;47.39;100958.53;18565598;32;20447;-56
2022/07/09 02:48:34;;;;;;;2.67;1.30;;;;;;;20.87;47.60;100955.16;18566114;32;20425;-55
2022/07/09 02:58:38;;;;;;;2.50;1.37;;;;;;;20.42;48.69;100953.19;18565020;32;20092;-55
2022/07/09 03:08:43;;;;;;;2.90;1.37;;;;;;;20.27;49.91;100955.44;18564500;32;20106;-56
2022/07/09 03:18:46;;;;;;;3.12;1.42;;;;;;;19.77;51.16;100951.72;18565370;32;20132;-55
2022/07/09 03:28:51;;;;;;;3.25;1.30;;;;;;;19.71;51.47;100959.00;18563718;31;20111;-56
2022/07/09 03:38:54;;;;;;;5.32;1.85;;;;;;;19.67;51.78;100963.53;18583721;31;20454;-56
2022/07/09 03:48:59;;;;;;;4.28;1.75;;;;;;;19.05;54.03;100965.34;18615342;31;20144;-55
2022/07/09 03:59:02;;;;;;;2.92;1.40;;;;;;;19.37;53.33;100966.22;18616675;31;20093;-56
2022/07/09 04:09:06;;;;;;;3.90;1.77;;;;;;;19.26;53.77;100972.69;18592867;31;21774;-55
2022/07/09 04:19:10;;;;;;;2.85;1.50;;;;;;;19.66;53.95;100975.03;18578938;31;20123;-56
2022/07/09 04:29:14;;;;;;;5.25;2.05;;;;;;;20.32;53.04;100982.66;18617686;31;20088;-55
2022/07/09 04:39:17;;;;;;;2.10;1.30;;;;;;;21.28;50.68;100983.69;18596735;31;20115;-56
2022/07/09 04:49:24;;;;;;;3.95;1.60;;;;;;;21.77;48.24;100969.50;18589609;31;20092;-56
2022/07/09 04:59:27;;;;;;;2.60;1.27;;;;;;;21.30;50.09;100978.34;18589396;31;20394;-56
2022/07/09 05:09:31;;;;;;;2.03;1.50;;;;;;;21.44;50.28;100978.69;18592015;31;20127;-56
2022/07/09 05:19:35;;;;;;;3.37;1.65;;;;;;;21.95;48.42;100961.66;18560806;32;20445;-56
2022/07/09 05:29:39;;;;;;;2.83;1.60;;;;;;;22.77;45.75;100966.22;18560088;32;20186;-55
2022/07/09 05:39:43;;;;;;;3.15;1.60;;;;;;;22.64;44.80;100967.66;18559357;32;20100;-56
2022/07/09 05:49:48;;;;;;;5.43;1.50;;;;;;;22.85;45.21;100972.03;18557318;32;20096;-55
2022/07/09 05:59:51;;;;;;;3.03;1.40;;;;;;;23.86;42.32;100953.19;18564505;32;20107;-56
2022/07/09 06:09:56;;;;;;;3.17;1.50;;;;;;;24.20;40.26;100964.00;18565610;32;20092;-55
2022/07/09 06:19:59;;;;;;;3.03;1.60;;;;;;;24.38;39.08;100963.06;18563119;32;20700;-56
2022/07/09 06:30:04;;;;;;;3.17;1.80;;;;;;;24.79;37.58;100964.53;18564071;32;20119;-56
2022/07/09 06:40:09;;;;;;;2.62;1.33;;;;;;;24.84;37.12;100952.72;18565796;32;20386;-56
2022/07/09 06:50:14;;;;;;;1.50;1.08;;;;;;;24.88;38.11;100960.50;18565185;31;20092;-56
2022/07/09 07:00:17;;;;;;;3.20;1.33;;;;;;;25.34;36.50;100957.12;18564913;32;20091;-56
2022/07/09 07:10:22;;;;;;;2.53;1.20;;;;;;;25.46;36.37;100955.56;18564420;32;20095;-56
2022/07/09 07:20:25;;;;;;;2.35;1.20;;;;;;;25.64;36.06;100947.47;18564438;32;20110;-56
2022/07/09 07:30:32;;;;;;;2.53;1.48;;;;;;;26.22;35.01;100930.81;18562784;32;20107;-56
2022/07/09 07:40:36;;;;;;;2.62;1.45;;;;;;;26.41;35.02;100941.25;18564196;31;20141;-56
2022/07/09 07:50:41;;;;;;;4.20;1.40;;;;;;;26.82;34.43;100940.53;18572343;31;20115;-56
2022/07/09 08:00:44;;;;;;;3.92;1.30;;;;;;;27.20;33.22;100933.72;18563205;32;20140;-55
2022/07/09 08:10:49;;;;;;;3.75;1.58;;;;;;;27.48;33.08;100925.72;18562871;32;20456;-56
2022/07/09 08:20:52;;;;;;;3.85;1.42;;;;;;;27.62;31.85;100920.34;18561057;32;20181;-56
2022/07/09 08:30:57;;;;;;;2.97;1.40;;;;;;;27.82;30.79;100912.78;18562182;32;20095;-56
2022/07/09 08:41:01;;;;;;;3.05;1.45;;;;;;;28.30;29.05;100914.06;18561626;32;20122;-56
2022/07/09 08:51:06;;;;;;;2.85;1.30;;;;;;;28.75;31.26;100917.16;18559681;32;20185;-56
2022/07/09 09:01:14;;;;;;;3.12;1.40;;;;;;;27.40;31.61;100902.97;18557587;32;20084;-56
2022/07/09 09:11:22;;;;;;;2.12;1.23;;;;;;;28.67;30.32;100895.38;18562374;32;20178;-56
2022/07/09 09:21:26;;;;;;;4.20;1.52;;;;;;;29.11;30.22;100890.47;18546394;32;20156;-56
2022/07/09 09:31:32;;;;;;;1.92;1.17;;;;;;;29.52;29.52;100874.94;18559717;32;20445;-55
2022/07/09 09:41:36;;;;;;;2.55;1.30;;;;;;;30.06;27.99;100856.56;18559673;32;20103;-56
2022/07/09 09:51:47;;;;;;;2.45;1.27;;;;;;;30.20;27.39;100854.59;18558761;32;20092;-56
2022/07/09 10:01:50;;;;;;;2.22;1.10;;;;;;;30.31;27.09;100846.56;18544099;32;20100;-55
2022/07/09 10:11:55;;;;;;;2.03;1.20;;;;;;;30.21;26.06;100848.25;18557956;32;20097;-56
2022/07/09 10:21:59;;;;;;;1.77;1.30;;;;;;;30.04;26.74;100832.41;18557256;32;20097;-56
2022/07/09 10:32:04;;;;;;;1.77;1.10;;;;;;;30.53;25.46;100824.13;18541998;32;20141;-56
2022/07/09 10:42:18;;;;;;;3.15;1.10;;;;;;;29.38;26.19;100806.03;18560673;32;20386;-56
2022/07/09 10:52:30;;;;;;;1.12;0.90;;;;;;;30.60;26.54;100800.28;18566263;32;20101;-56
2022/07/09 11:02:34;;;;;;;2.53;0.90;;;;;;;30.44;24.25;100795.25;18565101;32;20085;-56
2022/07/09 11:12:48;;;;;;;4.90;1.10;;;;;;;30.82;25.15;100785.91;18550257;32;20092;-55
2022/07/09 11:22:51;;;;;;;1.55;0.98;;;;;;;30.80;24.47;100778.97;18564661;32;20081;-56
2022/07/09 11:33:01;;;;;;;3.15;1.20;;;;;;;31.77;22.58;100766.37;18549806;32;20101;-56
2022/07/09 11:43:13;;;;;;;2.37;1.00;;;;;;;32.20;21.81;100759.06;18563886;32;20100;-55
2022/07/09 11:53:25;;;;;;;2.70;0.90;;;;;;;31.56;20.93;100730.34;18582769;31;20122;-55
2022/07/09 12:03:30;;;;;;;2.15;1.05;;;;;;;32.18;21.26;100718.72;18563207;32;20076;-55
2022/07/09 12:13:35;;;;;;;3.45;0.80;;;;;;;32.52;20.77;100702.19;18561656;31;20426;-56
2022/07/09 12:23:38;;;;;;;1.05;0.80;;;;;;;32.62;20.88;100685.13;18562262;32;20092;-56
2022/07/09 12:33:42;;;;;;;1.15;0.80;;;;;;;32.71;21.49;100661.81;18562288;32;20080;-55
2022/07/09 12:43:46;;;;;;;2.42;0.82;;;;;;;31.91;22.33;100671.59;18559370;32;75458;-56
2022/07/09 12:53:50;;;;;;;3.03;1.00;;;;;;;32.27;22.02;100651.38;18589786;31;20139;-55
2022/07/09 13:03:54;;;;;;;4.07;1.30;;;;;;;31.83;22.69;100644.44;18625958;31;20112;-55
2022/07/09 13:14:16;;;;;;;1.55;1.00;;;;;;;31.89;22.38;100633.09;18626393;31;20147;-55
2022/07/09 13:24:19;;;;;;;1.15;0.75;;;;;;;31.97;22.25;100630.56;18625432;31;20377;-56
2022/07/09 13:34:23;;;;;;;1.27;0.70;;;;;;;32.36;21.95;100629.81;18608187;31;20106;-55
2022/07/09 13:44:27;;;;;;;1.05;0.70;;;;;;;32.34;21.91;100606.59;18624689;31;20104;-55
2022/07/09 13:54:31;;;;;;;0.98;0.55;;;;;;;32.16;21.55;100601.91;18625233;31;20088;-56
2022/07/09 14:04:34;;;;;;;2.28;0.90;;;;;;;32.06;22.01;100601.00;18609121;31;20095;-56
2022/07/09 14:14:39;;;;;;;0.90;0.50;;;;;;;32.35;20.72;100587.56;18624265;31;20479;-55
2022/07/09 14:24:42;;;;;;;1.83;0.60;;;;;;;31.96;21.03;100585.66;18616389;31;20100;-57
2022/07/09 14:34:47;;;;;;;0.73;0.55;;;;;;;31.43;21.32;100578.66;18631240;31;20095;-56
2022/07/09 14:44:51;;;;;;;2.67;0.80;;;;;;;31.54;21.99;100583.09;18630506;31;20110;-56
2022/07/09 14:54:56;;;;;;;0.70;0.70;;;;;;;31.35;21.09;100573.06;18613194;31;20480;-55
2022/07/09 15:04:59;;;;;;;2.10;0.75;;;;;;;31.22;21.18;100559.81;18629928;31;20753;-56
2022/07/09 15:15:04;;;;;;;1.42;0.85;;;;;;;30.84;21.81;100568.41;18630201;31;20639;-55
2022/07/09 15:25:10;;;;;;;1.42;0.77;;;;;;;30.58;21.19;100562.50;18629567;31;20115;-55
2022/07/09 15:35:15;;;;;;;1.92;0.70;;;;;;;30.50;22.03;100554.22;18629598;31;20132;-55
2022/07/09 15:45:20;;;;;;;0.70;0.60;;;;;;;29.85;21.85;100555.87;18614273;31;20104;-55
2022/07/09 15:55:24;;;;;;;0.88;0.65;;;;;;;29.65;21.80;100548.59;18628969;31;20107;-59
2022/07/09 16:05:27;;;;;;;2.25;0.82;;;;;;;29.41;21.62;100536.09;18628507;31;20136;-55
2022/07/09 16:15:32;;;;;;;1.75;0.73;;;;;;;29.12;22.41;100529.38;18628302;31;20092;-55
2022/07/09 16:25:36;;;;;;;0.93;0.70;;;;;;;29.08;22.64;100527.91;18613417;31;20118;-54
2022/07/09 16:35:40;;;;;;;1.05;0.82;;;;;;;28.91;21.98;100538.13;18626673;31;20099;-54
2022/07/09 16:45:43;;;;;;;1.55;0.70;;;;;;;28.84;22.36;100542.28;18627154;31;20484;-54
2022/07/09 16:55:48;;;;;;;2.60;0.88;;;;;;;28.79;22.24;100531.87;18627109;31;20144;-55
2022/07/09 17:05:51;;;;;;;2.03;0.80;;;;;;;28.48;23.01;100523.47;18626521;31;20121;-55
2022/07/09 17:15:56;;;;;;;1.23;0.90;;;;;;;28.41;22.74;100530.31;18626439;31;20461;-55
2022/07/09 17:25:59;;;;;;;2.03;0.90;;;;;;;28.32;22.78;100512.22;18625825;31;20104;-55
2022/07/09 17:36:04;;;;;;;3.08;1.00;;;;;;;28.03;23.15;100513.38;18625193;31;20415;-55
2022/07/09 17:46:09;;;;;;;1.80;0.80;;;;;;;28.01;22.90;100515.34;18624953;31;20100;-55
2022/07/09 17:56:14;;;;;;;2.40;0.98;;;;;;;27.80;22.67;100521.31;18645402;31;20080;-55
2022/07/09 18:06:17;;;;;;;1.10;0.80;;;;;;;27.60;22.06;100519.22;18645660;31;20135;-55
2022/07/09 18:16:22;;;;;;;1.17;0.77;;;;;;;27.36;22.06;100515.47;18645112;31;20098;-55
2022/07/09 18:26:26;;;;;;;2.20;0.85;;;;;;;27.05;22.60;100516.81;18644563;31;20160;-55
2022/07/09 18:36:30;;;;;;;1.75;0.85;;;;;;;26.84;23.14;100525.34;18644204;31;20379;-55
2022/07/09 18:46:33;;;;;;;1.73;0.80;;;;;;;26.63;23.66;100528.53;18643233;31;20092;-55
2022/07/09 18:56:38;;;;;;;0.75;0.60;;;;;;;26.40;24.23;100538.13;18642819;31;20110;-55
2022/07/09 19:06:43;;;;;;;1.40;0.80;;;;;;;26.10;24.96;100540.03;18631366;31;20153;-55
2022/07/09 19:16:47;;;;;;;1.20;0.80;;;;;;;25.90;25.18;100536.84;18630113;31;20099;-55
2022/07/09 19:26:50;;;;;;;1.00;0.60;;;;;;;25.76;25.63;100540.41;18629644;31;20096;-55
2022/07/09 19:36:55;;;;;;;3.15;0.98;;;;;;;25.62;26.20;100548.44;18629556;31;20087;-55
2022/07/09 19:46:58;;;;;;;0.60;0.60;;;;;;;25.38;26.68;100545.47;18628965;31;20072;-55
2022/07/09 19:57:04;;;;;;;0.73;0.70;;;;;;;25.40;26.56;100548.91;18628816;31;20110;-55
2022/07/09 20:07:07;;;;;;;0.88;0.70;;;;;;;25.35;26.52;100547.38;18628536;31;20080;-54
2022/07/09 20:17:12;;;;;;;1.67;0.90;;;;;;;25.43;26.38;100557.59;18627184;31;20396;-55
2022/07/09 20:27:15;;;;;;;1.75;0.80;;;;;;;25.29;26.96;100552.25;18628002;31;20507;-55
2022/07/09 20:37:20;;;;;;;1.55;0.80;;;;;;;25.44;27.43;100539.75;18614234;31;20160;-55
2022/07/09 20:47:23;;;;;;;1.42;0.90;;;;;;;25.33;28.50;100543.97;18627215;31;20088;-55
2022/07/09 20:57:28;;;;;;;1.85;0.82;;;;;;;25.19;28.99;100549.28;18627164;31;20100;-55
2022/07/09 21:07:31;;;;;;;1.00;0.90;;;;;;;25.17;29.30;100541.34;18627682;31;20100;-55
2022/07/09 21:27:57;;;;;;;1.37;0.70;;;;;;;25.39;29.50;100533.81;18624909;31;20190;-55
2022/07/09 21:38:01;;;;;;;1.08;0.73;;;;;;;24.94;30.68;100538.28;18624978;31;20136;-55
2022/07/09 21:48:05;;;;;;;0.93;0.52;;;;;;;24.91;31.38;100526.94;18625100;31;20080;-55
2022/07/09 21:58:10;;;;;;;0.98;0.57;;;;;;;24.70;31.97;100529.91;18624472;31;20121;-55
2022/07/09 22:08:13;;;;;;;1.55;0.60;;;;;;;24.90;32.16;100526.09;18579590;31;20736;-57
2022/07/09 22:18:20;;;;;;;1.20;0.80;;;;;;;24.62;33.56;100517.06;18559049;32;20136;-55
2022/07/09 22:28:23;;;;;;;1.12;0.80;;;;;;;24.47;34.00;100520.62;18557807;32;20092;-55
2022/07/09 22:38:28;;;;;;;0.70;0.60;;;;;;;24.68;34.30;100521.16;18560717;32;20092;-55
2022/07/09 22:48:31;;;;;;;3.83;0.70;;;;;;;24.49;34.69;100511.56;18565146;32;20130;-56
2022/07/09 22:58:36;;;;;;;2.10;0.80;;;;;;;24.49;34.55;100516.03;18565210;32;20362;-56
2022/07/09 23:08:59;;;;;;;1.65;0.80;;;;;;;24.55;34.65;100525.50;18564973;32;20108;-56
2022/07/09 23:19:05;;;;;;;1.10;0.80;;;;;;;24.37;35.20;100517.63;18564784;32;20655;-56
2022/07/09 23:29:08;;;;;;;1.10;0.70;;;;;;;24.46;34.50;100525.06;18564279;32;20098;-56
2022/07/09 23:39:13;;;;;;;1.23;0.80;;;;;;;24.33;34.91;100527.63;18564893;32;20494;-56
2022/07/09 23:49:16;;;;;;;2.70;0.73;;;;;;;24.37;34.10;100520.28;18563147;32;20178;-56
2022/07/09 23:59:21;;;;;;;0.98;0.60;;;;;;;24.15;34.96;100518.87;18563414;32;20137;-56
